sensor_id;sensor_type;location;lat;lon;timestamp;temperature;humidity
11079;DHT22;5592;49.234;7.268;2023-03-11T00:01:23;0.60;99.90
11079;DHT22;5592;49.234;7.268;2023-03-11T00:03:49;0.50;99.90
11079;DHT22;5592;49.234;7.268;2023-03-11T00:06:15;0.40;99.90
11079;DHT22;5592;49.234;7.268;2023-03-11T00:08:41;0.40;99.90
11079;DHT22;5592;49.234;7.268;2023-03-11T00:11:07;0.50;99.90
11079;DHT22;5592;49.234;7.268;2023-03-11T00:13:32;0.50;99.90
11079;DHT22;5592;49.234;7.268;2023-03-11T00:16:02;0.50;99.90
11079;DHT22;5592;49.234;7.268;2023-03-11T00:18:28;0.50;99.90
11079;DHT22;5592;49.234;7.268;2023-03-11T00:20:57;0.50;99.90
11079;DHT22;5592;49.234;7.268;2023-03-11T00:23:25;0.40;99.90
11079;DHT22;5592;49.234;7.268;2023-03-11T00:25:51;0.30;99.90
11079;DHT22;5592;49.234;7.268;2023-03-11T00:28:16;0.30;99.90
11079;DHT22;5592;49.234;7.268;2023-03-11T00:30:43;0.30;99.90
11079;DHT22;5592;49.234;7.268;2023-03-11T00:33:11;0.30;99.90
11079;DHT22;5592;49.234;7.268;2023-03-11T00:35:37;0.30;99.90
11079;DHT22;5592;49.234;7.268;2023-03-11T00:38:06;0.30;99.90
11079;DHT22;5592;49.234;7.268;2023-03-11T00:40:34;0.20;99.90
11079;DHT22;5592;49.234;7.268;2023-03-11T00:42:59;0.20;99.90
11079;DHT22;5592;49.234;7.268;2023-03-11T00:45:26;0.20;99.90
11079;DHT22;5592;49.234;7.268;2023-03-11T00:47:54;0.10;99.90
11079;DHT22;5592;49.234;7.268;2023-03-11T00:50:23;0.10;99.90
11079;DHT22;5592;49.234;7.268;2023-03-11T00:52:49;0.00;99.90
11079;DHT22;5592;49.234;7.268;2023-03-11T00:55:18;-0.10;99.90
11079;DHT22;5592;49.234;7.268;2023-03-11T00:57:45;-0.20;99.90
11079;DHT22;5592;49.234;7.268;2023-03-11T01:00:16;-0.30;99.90
11079;DHT22;5592;49.234;7.268;2023-03-11T01:02:42;-0.20;99.90
11079;DHT22;5592;49.234;7.268;2023-03-11T01:05:09;-0.30;99.90
11079;DHT22;5592;49.234;7.268;2023-03-11T01:07:34;-0.30;99.90
11079;DHT22;5592;49.234;7.268;2023-03-11T01:10:00;-0.40;99.90
11079;DHT22;5592;49.234;7.268;2023-03-11T01:12:26;-0.40;99.90
11079;DHT22;5592;49.234;7.268;2023-03-11T01:14:52;-0.50;99.90
11079;DHT22;5592;49.234;7.268;2023-03-11T01:17:18;-0.50;99.90
11079;DHT22;5592;49.234;7.268;2023-03-11T01:19:46;-0.50;99.90
11079;DHT22;5592;49.234;7.268;2023-03-11T01:22:12;-0.60;99.90
11079;DHT22;5592;49.234;7.268;2023-03-11T01:24:38;-0.60;99.90
11079;DHT22;5592;49.234;7.268;2023-03-11T01:27:03;-0.70;99.90
11079;DHT22;5592;49.234;7.268;2023-03-11T01:29:29;-0.70;99.90
11079;DHT22;5592;49.234;7.268;2023-03-11T01:31:55;-0.70;99.90
11079;DHT22;5592;49.234;7.268;2023-03-11T01:34:20;-0.70;99.90
11079;DHT22;5592;49.234;7.268;2023-03-11T01:36:46;-0.70;99.90
11079;DHT22;5592;49.234;7.268;2023-03-11T01:39:11;-0.70;99.90
11079;DHT22;5592;49.234;7.268;2023-03-11T01:41:37;-0.70;99.90
11079;DHT22;5592;49.234;7.268;2023-03-11T01:44:03;-0.70;99.90
11079;DHT22;5592;49.234;7.268;2023-03-11T01:48:59;-0.80;99.90
11079;DHT22;5592;49.234;7.268;2023-03-11T01:51:35;-0.80;99.90
11079;DHT22;5592;49.234;7.268;2023-03-11T01:54:06;-0.80;99.90
11079;DHT22;5592;49.234;7.268;2023-03-11T01:56:32;-0.90;99.90
11079;DHT22;5592;49.234;7.268;2023-03-11T01:58:59;-0.90;99.90
11079;DHT22;5592;49.234;7.268;2023-03-11T02:01:24;-0.90;99.90
11079;DHT22;5592;49.234;7.268;2023-03-11T02:03:50;-1.00;99.90
11079;DHT22;5592;49.234;7.268;2023-03-11T02:06:19;-1.00;99.90
11079;DHT22;5592;49.234;7.268;2023-03-11T02:08:45;-1.00;99.90
11079;DHT22;5592;49.234;7.268;2023-03-11T02:11:16;-0.90;99.90
11079;DHT22;5592;49.234;7.268;2023-03-11T02:13:42;-1.00;99.90
11079;DHT22;5592;49.234;7.268;2023-03-11T02:16:09;-1.00;99.90
11079;DHT22;5592;49.234;7.268;2023-03-11T02:18:36;-1.00;99.90
11079;DHT22;5592;49.234;7.268;2023-03-11T02:21:07;-1.10;99.90
11079;DHT22;5592;49.234;7.268;2023-03-11T02:28:46;-1.30;99.90
11079;DHT22;5592;49.234;7.268;2023-03-11T02:31:13;-1.30;99.90
11079;DHT22;5592;49.234;7.268;2023-03-11T02:33:40;-1.40;99.90
11079;DHT22;5592;49.234;7.268;2023-03-11T02:38:56;-1.50;99.90
11079;DHT22;5592;49.234;7.268;2023-03-11T02:41:21;-1.40;99.90
11079;DHT22;5592;49.234;7.268;2023-03-11T02:43:47;-1.40;99.90
11079;DHT22;5592;49.234;7.268;2023-03-11T02:46:14;-1.50;99.90
11079;DHT22;5592;49.234;7.268;2023-03-11T02:48:40;-1.60;99.90
11079;DHT22;5592;49.234;7.268;2023-03-11T02:51:06;-1.70;99.90
11079;DHT22;5592;49.234;7.268;2023-03-11T02:53:36;-1.70;99.90
11079;DHT22;5592;49.234;7.268;2023-03-11T02:56:03;-1.50;99.90
11079;DHT22;5592;49.234;7.268;2023-03-11T02:58:29;-1.50;99.90
11079;DHT22;5592;49.234;7.268;2023-03-11T03:00:54;-1.60;99.90
11079;DHT22;5592;49.234;7.268;2023-03-11T03:03:20;-1.60;99.90
11079;DHT22;5592;49.234;7.268;2023-03-11T03:05:45;-1.70;99.90
11079;DHT22;5592;49.234;7.268;2023-03-11T03:08:11;-1.80;99.90
11079;DHT22;5592;49.234;7.268;2023-03-11T03:10:37;-1.90;99.90
11079;DHT22;5592;49.234;7.268;2023-03-11T03:13:03;-2.00;99.90
11079;DHT22;5592;49.234;7.268;2023-03-11T03:15:31;-2.00;99.90
11079;DHT22;5592;49.234;7.268;2023-03-11T03:17:57;-2.00;99.90
11079;DHT22;5592;49.234;7.268;2023-03-11T03:20:22;-2.20;99.90
11079;DHT22;5592;49.234;7.268;2023-03-11T03:22:49;-2.30;99.90
11079;DHT22;5592;49.234;7.268;2023-03-11T03:25:15;-2.40;99.90
11079;DHT22;5592;49.234;7.268;2023-03-11T03:27:41;-2.50;99.90
11079;DHT22;5592;49.234;7.268;2023-03-11T03:30:08;-2.50;99.90
11079;DHT22;5592;49.234;7.268;2023-03-11T03:32:34;-2.60;99.90
11079;DHT22;5592;49.234;7.268;2023-03-11T03:35:01;-2.60;99.90
11079;DHT22;5592;49.234;7.268;2023-03-11T03:37:27;-2.70;99.90
11079;DHT22;5592;49.234;7.268;2023-03-11T03:39:53;-2.70;99.90
11079;DHT22;5592;49.234;7.268;2023-03-11T03:42:19;-2.80;99.90
11079;DHT22;5592;49.234;7.268;2023-03-11T03:44:45;-2.80;99.90
11079;DHT22;5592;49.234;7.268;2023-03-11T03:47:11;-2.90;99.90
11079;DHT22;5592;49.234;7.268;2023-03-11T03:49:37;-2.90;99.90
11079;DHT22;5592;49.234;7.268;2023-03-11T03:52:05;-2.90;99.90
11079;DHT22;5592;49.234;7.268;2023-03-11T03:54:31;-2.90;99.90
11079;DHT22;5592;49.234;7.268;2023-03-11T03:56:57;-3.00;99.90
11079;DHT22;5592;49.234;7.268;2023-03-11T03:59:23;-3.00;99.90
11079;DHT22;5592;49.234;7.268;2023-03-11T04:01:48;-3.00;99.90
11079;DHT22;5592;49.234;7.268;2023-03-11T04:04:14;-3.00;99.90
11079;DHT22;5592;49.234;7.268;2023-03-11T04:06:41;-3.10;99.90
11079;DHT22;5592;49.234;7.268;2023-03-11T04:09:08;-3.10;99.90
11079;DHT22;5592;49.234;7.268;2023-03-11T04:11:35;-3.20;99.90
11079;DHT22;5592;49.234;7.268;2023-03-11T04:14:01;-3.10;99.90
11079;DHT22;5592;49.234;7.268;2023-03-11T04:16:27;-3.10;99.90
11079;DHT22;5592;49.234;7.268;2023-03-11T04:18:52;-3.10;99.90
11079;DHT22;5592;49.234;7.268;2023-03-11T04:21:18;-3.10;99.90
11079;DHT22;5592;49.234;7.268;2023-03-11T04:23:43;-3.20;99.90
11079;DHT22;5592;49.234;7.268;2023-03-11T04:26:09;-3.30;99.90
11079;DHT22;5592;49.234;7.268;2023-03-11T04:28:34;-3.30;99.90
11079;DHT22;5592;49.234;7.268;2023-03-11T04:31:00;-3.40;99.90
11079;DHT22;5592;49.234;7.268;2023-03-11T04:33:26;-3.50;99.90
11079;DHT22;5592;49.234;7.268;2023-03-11T04:35:51;-3.50;99.90
11079;DHT22;5592;49.234;7.268;2023-03-11T04:38:17;-3.60;99.90
11079;DHT22;5592;49.234;7.268;2023-03-11T04:40:42;-3.60;99.90
11079;DHT22;5592;49.234;7.268;2023-03-11T04:43:08;-3.60;99.90
11079;DHT22;5592;49.234;7.268;2023-03-11T04:45:37;-3.60;99.90
11079;DHT22;5592;49.234;7.268;2023-03-11T04:48:03;-3.60;99.90
11079;DHT22;5592;49.234;7.268;2023-03-11T04:50:29;-3.50;99.90
11079;DHT22;5592;49.234;7.268;2023-03-11T04:52:54;-3.50;99.90
11079;DHT22;5592;49.234;7.268;2023-03-11T04:55:21;-3.30;99.90
11079;DHT22;5592;49.234;7.268;2023-03-11T04:57:48;-3.30;99.90
11079;DHT22;5592;49.234;7.268;2023-03-11T05:00:14;-3.40;99.90
11079;DHT22;5592;49.234;7.268;2023-03-11T05:02:40;-3.40;99.90
11079;DHT22;5592;49.234;7.268;2023-03-11T05:05:07;-3.50;99.90
11079;DHT22;5592;49.234;7.268;2023-03-11T05:07:34;-3.40;99.90
11079;DHT22;5592;49.234;7.268;2023-03-11T05:09:59;-3.40;99.90
11079;DHT22;5592;49.234;7.268;2023-03-11T05:12:25;-3.40;99.90
11079;DHT22;5592;49.234;7.268;2023-03-11T05:14:51;-3.30;99.90
11079;DHT22;5592;49.234;7.268;2023-03-11T05:17:17;-3.20;99.90
11079;DHT22;5592;49.234;7.268;2023-03-11T05:19:44;-3.20;99.90
11079;DHT22;5592;49.234;7.268;2023-03-11T05:22:09;-3.20;99.90
11079;DHT22;5592;49.234;7.268;2023-03-11T05:24:35;-3.10;99.90
11079;DHT22;5592;49.234;7.268;2023-03-11T05:27:01;-3.20;99.90
11079;DHT22;5592;49.234;7.268;2023-03-11T05:29:27;-3.30;99.90
11079;DHT22;5592;49.234;7.268;2023-03-11T05:31:52;-3.40;99.90
11079;DHT22;5592;49.234;7.268;2023-03-11T05:34:18;-3.40;99.90
11079;DHT22;5592;49.234;7.268;2023-03-11T05:36:45;-3.50;99.90
11079;DHT22;5592;49.234;7.268;2023-03-11T05:39:10;-3.40;99.90
11079;DHT22;5592;49.234;7.268;2023-03-11T05:41:36;-3.30;99.90
11079;DHT22;5592;49.234;7.268;2023-03-11T05:44:02;-3.30;99.90
11079;DHT22;5592;49.234;7.268;2023-03-11T05:46:28;-3.20;99.90
11079;DHT22;5592;49.234;7.268;2023-03-11T05:48:53;-3.20;99.90
11079;DHT22;5592;49.234;7.268;2023-03-11T05:51:19;-3.20;99.90
11079;DHT22;5592;49.234;7.268;2023-03-11T05:53:46;-3.20;99.90
11079;DHT22;5592;49.234;7.268;2023-03-11T05:56:15;-3.10;99.90
11079;DHT22;5592;49.234;7.268;2023-03-11T05:58:41;-3.00;99.90
11079;DHT22;5592;49.234;7.268;2023-03-11T06:01:11;-2.90;99.90
11079;DHT22;5592;49.234;7.268;2023-03-11T06:03:38;-2.90;99.90
11079;DHT22;5592;49.234;7.268;2023-03-11T06:06:06;-2.60;99.90
11079;DHT22;5592;49.234;7.268;2023-03-11T06:08:32;-2.50;99.90
11079;DHT22;5592;49.234;7.268;2023-03-11T06:11:02;-2.40;99.90
11079;DHT22;5592;49.234;7.268;2023-03-11T06:13:28;-2.30;99.90
11079;DHT22;5592;49.234;7.268;2023-03-11T06:15:53;-2.20;99.90
11079;DHT22;5592;49.234;7.268;2023-03-11T06:18:19;-2.10;99.90
11079;DHT22;5592;49.234;7.268;2023-03-11T06:20:45;-2.10;99.90
11079;DHT22;5592;49.234;7.268;2023-03-11T06:23:10;-2.00;99.90
11079;DHT22;5592;49.234;7.268;2023-03-11T06:25:36;-2.00;99.90
11079;DHT22;5592;49.234;7.268;2023-03-11T06:28:01;-1.70;99.90
11079;DHT22;5592;49.234;7.268;2023-03-11T06:30:27;-1.60;99.90
11079;DHT22;5592;49.234;7.268;2023-03-11T06:32:53;-1.30;99.90
11079;DHT22;5592;49.234;7.268;2023-03-11T06:35:19;-0.90;99.90
11079;DHT22;5592;49.234;7.268;2023-03-11T06:37:45;-0.50;99.90
11079;DHT22;5592;49.234;7.268;2023-03-11T06:40:11;-0.10;99.90
11079;DHT22;5592;49.234;7.268;2023-03-11T06:42:37;0.40;99.90
11079;DHT22;5592;49.234;7.268;2023-03-11T06:45:03;0.90;99.90
11079;DHT22;5592;49.234;7.268;2023-03-11T06:47:29;1.70;99.90
11079;DHT22;5592;49.234;7.268;2023-03-11T06:49:54;2.50;99.90
11079;DHT22;5592;49.234;7.268;2023-03-11T06:52:20;3.60;99.90
11079;DHT22;5592;49.234;7.268;2023-03-11T06:54:45;4.60;99.90
11079;DHT22;5592;49.234;7.268;2023-03-11T06:57:12;5.80;99.90
11079;DHT22;5592;49.234;7.268;2023-03-11T06:59:38;7.10;99.90
11079;DHT22;5592;49.234;7.268;2023-03-11T07:02:04;8.10;99.90
11079;DHT22;5592;49.234;7.268;2023-03-11T07:04:31;9.10;99.90
11079;DHT22;5592;49.234;7.268;2023-03-11T07:06:57;9.40;99.90
11079;DHT22;5592;49.234;7.268;2023-03-11T07:09:23;9.70;99.90
11079;DHT22;5592;49.234;7.268;2023-03-11T07:11:50;10.20;99.90
11079;DHT22;5592;49.234;7.268;2023-03-11T07:14:17;11.10;99.90
11079;DHT22;5592;49.234;7.268;2023-03-11T07:16:44;11.30;99.90
11079;DHT22;5592;49.234;7.268;2023-03-11T07:19:10;11.50;99.90
11079;DHT22;5592;49.234;7.268;2023-03-11T07:21:36;12.00;99.90
11079;DHT22;5592;49.234;7.268;2023-03-11T07:24:04;12.50;99.90
11079;DHT22;5592;49.234;7.268;2023-03-11T07:26:34;12.80;99.90
11079;DHT22;5592;49.234;7.268;2023-03-11T07:29:00;13.20;99.90
11079;DHT22;5592;49.234;7.268;2023-03-11T07:31:30;13.70;99.90
11079;DHT22;5592;49.234;7.268;2023-03-11T07:33:58;14.20;98.90
11079;DHT22;5592;49.234;7.268;2023-03-11T07:36:25;14.80;97.40
11079;DHT22;5592;49.234;7.268;2023-03-11T07:39:03;14.90;95.40
11079;DHT22;5592;49.234;7.268;2023-03-11T07:41:31;15.20;93.50
11079;DHT22;5592;49.234;7.268;2023-03-11T07:43:58;15.30;94.50
11079;DHT22;5592;49.234;7.268;2023-03-11T07:46:25;15.20;91.60
11079;DHT22;5592;49.234;7.268;2023-03-11T07:48:51;15.70;92.20
11079;DHT22;5592;49.234;7.268;2023-03-11T07:51:23;16.30;85.90
11079;DHT22;5592;49.234;7.268;2023-03-11T07:53:51;16.40;86.20
11079;DHT22;5592;49.234;7.268;2023-03-11T07:56:18;16.40;85.30
11079;DHT22;5592;49.234;7.268;2023-03-11T07:58:44;16.10;84.90
11079;DHT22;5592;49.234;7.268;2023-03-11T08:01:15;16.20;85.70
11079;DHT22;5592;49.234;7.268;2023-03-11T08:03:43;15.80;79.70
11079;DHT22;5592;49.234;7.268;2023-03-11T08:06:18;15.80;80.80
11079;DHT22;5592;49.234;7.268;2023-03-11T08:08:45;15.90;82.40
11079;DHT22;5592;49.234;7.268;2023-03-11T08:11:11;16.10;79.70
11079;DHT22;5592;49.234;7.268;2023-03-11T08:13:38;16.40;78.70
11079;DHT22;5592;49.234;7.268;2023-03-11T08:16:05;15.90;76.70
11079;DHT22;5592;49.234;7.268;2023-03-11T08:18:31;16.10;80.60
11079;DHT22;5592;49.234;7.268;2023-03-11T08:20:58;16.40;78.70
11079;DHT22;5592;49.234;7.268;2023-03-11T08:23:23;17.00;76.00
11079;DHT22;5592;49.234;7.268;2023-03-11T08:25:49;17.10;73.30
11079;DHT22;5592;49.234;7.268;2023-03-11T08:28:15;17.20;73.30
11079;DHT22;5592;49.234;7.268;2023-03-11T08:30:41;17.10;69.20
11079;DHT22;5592;49.234;7.268;2023-03-11T08:33:06;17.40;69.50
11079;DHT22;5592;49.234;7.268;2023-03-11T08:35:32;17.40;68.30
11079;DHT22;5592;49.234;7.268;2023-03-11T08:37:57;17.50;70.50
11079;DHT22;5592;49.234;7.268;2023-03-11T08:40:23;17.60;70.90
11079;DHT22;5592;49.234;7.268;2023-03-11T08:42:49;17.90;68.60
11079;DHT22;5592;49.234;7.268;2023-03-11T08:45:14;18.00;64.00
11079;DHT22;5592;49.234;7.268;2023-03-11T08:47:40;18.00;63.00
11079;DHT22;5592;49.234;7.268;2023-03-11T08:50:11;18.00;63.30
11079;DHT22;5592;49.234;7.268;2023-03-11T08:52:40;18.00;65.50
11079;DHT22;5592;49.234;7.268;2023-03-11T08:55:10;18.10;64.10
11079;DHT22;5592;49.234;7.268;2023-03-11T08:57:36;18.30;63.00
11079;DHT22;5592;49.234;7.268;2023-03-11T09:00:04;19.00;61.30
11079;DHT22;5592;49.234;7.268;2023-03-11T09:02:31;18.70;61.40
11079;DHT22;5592;49.234;7.268;2023-03-11T09:04:57;17.40;60.00
11079;DHT22;5592;49.234;7.268;2023-03-11T09:07:22;16.50;60.40
11079;DHT22;5592;49.234;7.268;2023-03-11T09:09:48;16.70;57.90
11079;DHT22;5592;49.234;7.268;2023-03-11T09:12:14;16.70;56.30
11079;DHT22;5592;49.234;7.268;2023-03-11T09:14:40;16.70;59.50
11079;DHT22;5592;49.234;7.268;2023-03-11T09:17:07;16.50;57.40
11079;DHT22;5592;49.234;7.268;2023-03-11T09:19:33;16.90;57.00
11079;DHT22;5592;49.234;7.268;2023-03-11T09:22:00;17.40;55.10
11079;DHT22;5592;49.234;7.268;2023-03-11T09:24:25;18.30;55.80
11079;DHT22;5592;49.234;7.268;2023-03-11T09:26:51;18.00;53.50
11079;DHT22;5592;49.234;7.268;2023-03-11T09:29:17;18.20;51.70
11079;DHT22;5592;49.234;7.268;2023-03-11T09:31:42;18.80;49.70
11079;DHT22;5592;49.234;7.268;2023-03-11T09:34:10;18.20;52.10
11079;DHT22;5592;49.234;7.268;2023-03-11T09:36:36;18.20;51.90
11079;DHT22;5592;49.234;7.268;2023-03-11T09:39:02;18.60;52.80
11079;DHT22;5592;49.234;7.268;2023-03-11T09:52:14;16.50;51.70
11079;DHT22;5592;49.234;7.268;2023-03-11T09:54:49;17.50;49.70
11079;DHT22;5592;49.234;7.268;2023-03-11T09:57:21;17.80;49.30
11079;DHT22;5592;49.234;7.268;2023-03-11T09:59:49;17.40;51.40
11079;DHT22;5592;49.234;7.268;2023-03-11T10:02:17;18.00;52.90
11079;DHT22;5592;49.234;7.268;2023-03-11T10:07:17;18.20;47.80
11079;DHT22;5592;49.234;7.268;2023-03-11T10:09:54;18.70;48.00
11079;DHT22;5592;49.234;7.268;2023-03-11T10:15:13;18.90;49.80
11079;DHT22;5592;49.234;7.268;2023-03-11T10:21:10;18.70;51.20
11079;DHT22;5592;49.234;7.268;2023-03-11T10:26:48;19.50;46.30
11079;DHT22;5592;49.234;7.268;2023-03-11T10:29:55;18.90;48.20
11079;DHT22;5592;49.234;7.268;2023-03-11T10:32:25;18.10;47.70
11079;DHT22;5592;49.234;7.268;2023-03-11T10:35:00;16.60;47.00
11079;DHT22;5592;49.234;7.268;2023-03-11T10:37:50;15.70;47.20
11079;DHT22;5592;49.234;7.268;2023-03-11T10:40:28;15.20;49.20
11079;DHT22;5592;49.234;7.268;2023-03-11T10:42:57;15.30;49.70
11079;DHT22;5592;49.234;7.268;2023-03-11T10:45:24;16.10;49.50
11079;DHT22;5592;49.234;7.268;2023-03-11T10:47:51;16.20;48.90
11079;DHT22;5592;49.234;7.268;2023-03-11T10:50:18;16.00;48.90
11079;DHT22;5592;49.234;7.268;2023-03-11T10:53:04;16.00;50.20
11079;DHT22;5592;49.234;7.268;2023-03-11T10:55:29;15.70;48.80
11079;DHT22;5592;49.234;7.268;2023-03-11T10:58:19;15.60;49.20
11079;DHT22;5592;49.234;7.268;2023-03-11T11:01:31;16.10;48.10
11079;DHT22;5592;49.234;7.268;2023-03-11T11:03:52;16.30;50.50
11079;DHT22;5592;49.234;7.268;2023-03-11T11:06:32;16.30;51.70
11079;DHT22;5592;49.234;7.268;2023-03-11T11:09:19;16.00;55.10
11079;DHT22;5592;49.234;7.268;2023-03-11T11:14:46;16.40;51.40
11079;DHT22;5592;49.234;7.268;2023-03-11T11:17:23;15.50;51.10
11079;DHT22;5592;49.234;7.268;2023-03-11T11:19:51;14.60;51.00
11079;DHT22;5592;49.234;7.268;2023-03-11T11:22:19;13.50;53.10
11079;DHT22;5592;49.234;7.268;2023-03-11T11:24:46;12.40;53.70
11079;DHT22;5592;49.234;7.268;2023-03-11T11:27:22;11.10;54.70
11079;DHT22;5592;49.234;7.268;2023-03-11T11:30:12;10.60;55.60
11079;DHT22;5592;49.234;7.268;2023-03-11T11:32:39;9.40;55.70
11079;DHT22;5592;49.234;7.268;2023-03-11T11:35:13;9.10;58.50
11079;DHT22;5592;49.234;7.268;2023-03-11T11:37:52;9.00;59.60
11079;DHT22;5592;49.234;7.268;2023-03-11T11:45:37;8.50;59.00
11079;DHT22;5592;49.234;7.268;2023-03-11T11:48:43;8.20;59.80
11079;DHT22;5592;49.234;7.268;2023-03-11T11:51:21;8.50;59.30
11079;DHT22;5592;49.234;7.268;2023-03-11T11:53:55;8.50;61.90
11079;DHT22;5592;49.234;7.268;2023-03-11T11:56:25;9.00;65.40
11079;DHT22;5592;49.234;7.268;2023-03-11T11:58:51;9.40;62.30
11079;DHT22;5592;49.234;7.268;2023-03-11T12:01:45;9.30;60.80
11079;DHT22;5592;49.234;7.268;2023-03-11T12:09:58;9.20;58.00
11079;DHT22;5592;49.234;7.268;2023-03-11T12:12:33;9.10;59.80
11079;DHT22;5592;49.234;7.268;2023-03-11T12:15:27;9.10;65.30
11079;DHT22;5592;49.234;7.268;2023-03-11T12:17:59;8.90;62.40
11079;DHT22;5592;49.234;7.268;2023-03-11T12:20:31;8.80;62.30
11079;DHT22;5592;49.234;7.268;2023-03-11T12:23:18;9.10;60.90
11079;DHT22;5592;49.234;7.268;2023-03-11T12:25:57;9.10;61.00
11079;DHT22;5592;49.234;7.268;2023-03-11T12:28:32;9.40;62.50
11079;DHT22;5592;49.234;7.268;2023-03-11T12:31:06;9.30;57.80
11079;DHT22;5592;49.234;7.268;2023-03-11T12:33:42;9.10;61.60
11079;DHT22;5592;49.234;7.268;2023-03-11T12:38:47;8.60;66.00
11079;DHT22;5592;49.234;7.268;2023-03-11T12:46:10;7.50;59.70
11079;DHT22;5592;49.234;7.268;2023-03-11T12:48:42;7.50;60.70
11079;DHT22;5592;49.234;7.268;2023-03-11T12:56:44;7.70;68.20
11079;DHT22;5592;49.234;7.268;2023-03-11T13:08:08;7.80;60.90
11079;DHT22;5592;49.234;7.268;2023-03-11T13:10:47;7.80;65.10
11079;DHT22;5592;49.234;7.268;2023-03-11T13:18:40;8.20;62.50
11079;DHT22;5592;49.234;7.268;2023-03-11T13:30:08;7.30;62.00
11079;DHT22;5592;49.234;7.268;2023-03-11T13:35:39;7.40;65.60
11079;DHT22;5592;49.234;7.268;2023-03-11T13:38:32;7.40;65.00
11079;DHT22;5592;49.234;7.268;2023-03-11T13:41:02;7.80;63.40
11079;DHT22;5592;49.234;7.268;2023-03-11T13:43:28;8.20;66.40
11079;DHT22;5592;49.234;7.268;2023-03-11T13:46:03;8.30;60.40
11079;DHT22;5592;49.234;7.268;2023-03-11T13:53:48;7.70;60.20
11079;DHT22;5592;49.234;7.268;2023-03-11T13:56:21;7.70;60.90
11079;DHT22;5592;49.234;7.268;2023-03-11T13:58:48;7.90;61.90
11079;DHT22;5592;49.234;7.268;2023-03-11T14:01:15;8.10;66.20
11079;DHT22;5592;49.234;7.268;2023-03-11T14:03:43;8.20;66.90
11079;DHT22;5592;49.234;7.268;2023-03-11T14:06:17;8.40;70.00
11079;DHT22;5592;49.234;7.268;2023-03-11T14:08:55;8.50;67.30
11079;DHT22;5592;49.234;7.268;2023-03-11T14:11:26;8.50;68.40
11079;DHT22;5592;49.234;7.268;2023-03-11T14:13:53;8.70;65.50
11079;DHT22;5592;49.234;7.268;2023-03-11T14:16:31;8.80;65.90
11079;DHT22;5592;49.234;7.268;2023-03-11T14:19:17;8.80;68.30
11079;DHT22;5592;49.234;7.268;2023-03-11T14:21:45;8.90;67.50
11079;DHT22;5592;49.234;7.268;2023-03-11T14:26:50;9.10;60.80
11079;DHT22;5592;49.234;7.268;2023-03-11T14:29:24;8.80;63.00
11079;DHT22;5592;49.234;7.268;2023-03-11T14:31:52;8.70;63.30
11079;DHT22;5592;49.234;7.268;2023-03-11T14:34:23;8.60;66.70
11079;DHT22;5592;49.234;7.268;2023-03-11T14:36:56;8.50;64.80
11079;DHT22;5592;49.234;7.268;2023-03-11T14:39:37;8.50;63.20
11079;DHT22;5592;49.234;7.268;2023-03-11T14:47:49;8.80;67.20
11079;DHT22;5592;49.234;7.268;2023-03-11T14:50:20;8.70;64.00
11079;DHT22;5592;49.234;7.268;2023-03-11T14:55:24;8.50;60.40
11079;DHT22;5592;49.234;7.268;2023-03-11T14:58:36;8.60;61.70
11079;DHT22;5592;49.234;7.268;2023-03-11T15:00:47;8.50;61.40
11079;DHT22;5592;49.234;7.268;2023-03-11T15:03:33;8.60;67.10
11079;DHT22;5592;49.234;7.268;2023-03-11T15:06:05;8.90;65.30
11079;DHT22;5592;49.234;7.268;2023-03-11T15:08:36;9.00;63.50
11079;DHT22;5592;49.234;7.268;2023-03-11T15:13:37;8.50;61.70
11079;DHT22;5592;49.234;7.268;2023-03-11T15:16:06;8.50;62.30
11079;DHT22;5592;49.234;7.268;2023-03-11T15:18:34;8.10;63.60
11079;DHT22;5592;49.234;7.268;2023-03-11T15:21:13;8.30;64.20
11079;DHT22;5592;49.234;7.268;2023-03-11T15:23:44;8.30;63.50
11079;DHT22;5592;49.234;7.268;2023-03-11T15:26:22;8.20;64.90
11079;DHT22;5592;49.234;7.268;2023-03-11T15:28:54;8.00;66.30
11079;DHT22;5592;49.234;7.268;2023-03-11T15:33:46;7.90;65.00
11079;DHT22;5592;49.234;7.268;2023-03-11T15:39:18;7.80;69.70
11079;DHT22;5592;49.234;7.268;2023-03-11T15:41:53;7.70;67.60
11079;DHT22;5592;49.234;7.268;2023-03-11T15:44:46;7.60;66.20
11079;DHT22;5592;49.234;7.268;2023-03-11T15:47:15;7.60;68.90
11079;DHT22;5592;49.234;7.268;2023-03-11T15:49:41;7.60;67.80
11079;DHT22;5592;49.234;7.268;2023-03-11T15:52:07;7.50;67.50
11079;DHT22;5592;49.234;7.268;2023-03-11T15:54:33;7.50;67.30
11079;DHT22;5592;49.234;7.268;2023-03-11T15:56:59;7.40;69.70
11079;DHT22;5592;49.234;7.268;2023-03-11T15:59:27;7.20;71.50
11079;DHT22;5592;49.234;7.268;2023-03-11T16:01:53;7.10;69.30
11079;DHT22;5592;49.234;7.268;2023-03-11T16:04:20;7.00;69.60
11079;DHT22;5592;49.234;7.268;2023-03-11T16:06:46;6.80;70.20
11079;DHT22;5592;49.234;7.268;2023-03-11T16:09:13;6.70;72.90
11079;DHT22;5592;49.234;7.268;2023-03-11T16:11:40;6.60;70.10
11079;DHT22;5592;49.234;7.268;2023-03-11T16:14:13;6.60;69.00
11079;DHT22;5592;49.234;7.268;2023-03-11T16:16:39;6.40;68.00
11079;DHT22;5592;49.234;7.268;2023-03-11T16:19:05;6.30;68.70
11079;DHT22;5592;49.234;7.268;2023-03-11T16:21:38;6.20;71.30
11079;DHT22;5592;49.234;7.268;2023-03-11T16:24:04;6.10;71.00
11079;DHT22;5592;49.234;7.268;2023-03-11T16:26:31;6.00;74.70
11079;DHT22;5592;49.234;7.268;2023-03-11T16:28:57;6.00;71.80
11079;DHT22;5592;49.234;7.268;2023-03-11T16:31:23;6.00;76.20
11079;DHT22;5592;49.234;7.268;2023-03-11T16:33:48;5.80;79.60
11079;DHT22;5592;49.234;7.268;2023-03-11T16:36:14;5.80;76.20
11079;DHT22;5592;49.234;7.268;2023-03-11T16:38:46;5.80;75.90
11079;DHT22;5592;49.234;7.268;2023-03-11T16:41:15;5.70;73.80
11079;DHT22;5592;49.234;7.268;2023-03-11T16:43:41;5.60;78.30
11079;DHT22;5592;49.234;7.268;2023-03-11T16:46:07;5.60;81.30
11079;DHT22;5592;49.234;7.268;2023-03-11T16:48:33;5.60;79.50
11079;DHT22;5592;49.234;7.268;2023-03-11T16:50:58;5.60;78.20
11079;DHT22;5592;49.234;7.268;2023-03-11T16:53:24;5.50;80.20
11079;DHT22;5592;49.234;7.268;2023-03-11T16:55:51;5.40;80.70
11079;DHT22;5592;49.234;7.268;2023-03-11T16:58:17;5.40;81.20
11079;DHT22;5592;49.234;7.268;2023-03-11T17:00:43;5.40;82.90
11079;DHT22;5592;49.234;7.268;2023-03-11T17:03:13;5.30;82.50
11079;DHT22;5592;49.234;7.268;2023-03-11T17:05:39;5.20;81.10
11079;DHT22;5592;49.234;7.268;2023-03-11T17:08:05;5.10;84.40
11079;DHT22;5592;49.234;7.268;2023-03-11T17:10:39;4.90;87.80
11079;DHT22;5592;49.234;7.268;2023-03-11T17:13:06;4.60;91.90
11079;DHT22;5592;49.234;7.268;2023-03-11T17:15:32;4.50;93.30
11079;DHT22;5592;49.234;7.268;2023-03-11T17:17:59;4.30;95.00
11079;DHT22;5592;49.234;7.268;2023-03-11T17:20:25;4.20;98.30
11079;DHT22;5592;49.234;7.268;2023-03-11T17:22:51;4.00;99.90
11079;DHT22;5592;49.234;7.268;2023-03-11T17:25:17;3.90;99.90
11079;DHT22;5592;49.234;7.268;2023-03-11T17:27:43;3.90;99.90
11079;DHT22;5592;49.234;7.268;2023-03-11T17:30:10;3.80;99.90
11079;DHT22;5592;49.234;7.268;2023-03-11T17:32:35;3.70;99.90
11079;DHT22;5592;49.234;7.268;2023-03-11T17:35:01;3.50;99.90
11079;DHT22;5592;49.234;7.268;2023-03-11T17:37:27;3.40;99.90
11079;DHT22;5592;49.234;7.268;2023-03-11T17:39:53;3.30;99.90
11079;DHT22;5592;49.234;7.268;2023-03-11T17:42:18;3.20;99.90
11079;DHT22;5592;49.234;7.268;2023-03-11T17:44:44;3.10;99.90
11079;DHT22;5592;49.234;7.268;2023-03-11T17:47:09;2.90;99.90
11079;DHT22;5592;49.234;7.268;2023-03-11T17:49:35;2.60;99.90
11079;DHT22;5592;49.234;7.268;2023-03-11T17:52:00;2.40;99.90